createdAt,value
2018-05-31T00:00:48.652Z,15.9
2018-05-31T00:01:50.320Z,16.0
2018-05-31T00:02:51.980Z,15.9
2018-05-31T00:03:53.654Z,15.6
2018-05-31T00:04:55.317Z,15.7
2018-05-31T00:05:56.984Z,15.5
2018-05-31T00:06:58.699Z,15.4
2018-05-31T00:08:00.370Z,15.5
2018-05-31T00:09:02.032Z,15.5
2018-05-31T00:10:03.691Z,15.4
2018-05-31T00:11:05.356Z,15.5
2018-05-31T00:12:07.023Z,15.4
2018-05-31T00:13:08.680Z,15.5
2018-05-31T00:14:10.351Z,15.6
2018-05-31T00:15:12.058Z,15.7
2018-05-31T00:16:13.711Z,15.8
2018-05-31T00:17:15.366Z,16.0
2018-05-31T00:18:17.027Z,15.8
2018-05-31T00:19:18.688Z,15.7
2018-05-31T00:20:20.337Z,15.7
2018-05-31T00:21:21.988Z,15.5
2018-05-31T00:22:23.656Z,15.5
2018-05-31T00:23:25.319Z,15.6
2018-05-31T00:24:26.994Z,15.6
2018-05-31T00:25:28.668Z,15.6
2018-05-31T00:26:30.326Z,15.5
2018-05-31T00:27:32.006Z,15.6
2018-05-31T00:28:33.691Z,15.5
2018-05-31T00:29:35.329Z,15.5
2018-05-31T00:30:37.019Z,15.4
2018-05-31T00:31:38.677Z,15.5
2018-05-31T00:32:40.353Z,15.3
2018-05-31T00:33:41.994Z,15.4
2018-05-31T00:34:43.663Z,15.4
2018-05-31T00:35:45.282Z,15.6
2018-05-31T00:36:47.019Z,15.5
2018-05-31T00:37:48.682Z,15.5
2018-05-31T00:38:50.339Z,15.7
2018-05-31T00:39:52.004Z,15.6
2018-05-31T00:40:53.665Z,15.7
2018-05-31T00:41:55.326Z,15.6
2018-05-31T00:42:56.989Z,15.6
2018-05-31T00:43:58.638Z,15.6
2018-05-31T00:45:00.350Z,15.5
2018-05-31T00:46:02.014Z,15.6
2018-05-31T00:47:03.671Z,15.4
2018-05-31T00:48:05.345Z,15.5
2018-05-31T00:49:07.005Z,15.4
2018-05-31T00:50:08.658Z,15.3
2018-05-31T00:51:10.308Z,15.2
2018-05-31T00:52:11.969Z,15.1
2018-05-31T00:53:13.640Z,15.0
2018-05-31T00:54:15.296Z,15.0
2018-05-31T00:55:16.953Z,15.1
2018-05-31T00:56:18.623Z,15.2
2018-05-31T00:57:20.280Z,15.4
2018-05-31T00:58:21.934Z,15.4
2018-05-31T00:59:23.604Z,15.3
2018-05-31T01:00:25.238Z,15.4
2018-05-31T01:01:26.900Z,15.4
2018-05-31T01:02:28.563Z,15.4
2018-05-31T01:03:30.223Z,15.5
2018-05-31T01:04:31.879Z,15.4
2018-05-31T01:05:33.539Z,15.5
2018-05-31T01:06:35.202Z,15.5
2018-05-31T01:07:36.895Z,15.4
2018-05-31T01:08:38.559Z,15.4
2018-05-31T01:09:40.211Z,15.3
2018-05-31T01:10:41.862Z,15.2
2018-05-31T01:11:43.526Z,15.2
2018-05-31T01:12:45.193Z,15.3
2018-05-31T01:13:46.865Z,15.4
2018-05-31T01:14:48.521Z,15.3
2018-05-31T01:15:50.185Z,15.5
2018-05-31T01:16:51.835Z,15.5
2018-05-31T01:17:53.495Z,15.4
2018-05-31T01:18:55.150Z,15.5
2018-05-31T01:19:56.817Z,15.4
2018-05-31T01:20:58.474Z,15.5
2018-05-31T01:22:00.125Z,15.4
2018-05-31T01:23:01.783Z,15.3
2018-05-31T01:24:03.449Z,15.2
2018-05-31T01:25:05.108Z,15.1
2018-05-31T01:26:06.766Z,15.1
2018-05-31T01:27:08.423Z,15.1
2018-05-31T01:28:10.096Z,15.0
2018-05-31T01:29:11.751Z,15.0
2018-05-31T01:30:13.407Z,15.1
2018-05-31T01:31:15.063Z,14.9
2018-05-31T01:32:16.730Z,15.0
2018-05-31T01:33:18.395Z,15.0
2018-05-31T01:34:20.068Z,15.1
2018-05-31T01:35:21.716Z,15.1
2018-05-31T01:36:23.385Z,15.1
2018-05-31T01:37:25.047Z,15.1
2018-05-31T01:38:26.727Z,15.1
2018-05-31T01:39:28.374Z,15.1
2018-05-31T01:40:30.051Z,15.1
2018-05-31T01:41:31.706Z,15.0
2018-05-31T01:42:33.376Z,14.9
2018-05-31T01:43:35.033Z,15.0
2018-05-31T01:44:36.724Z,14.9
2018-05-31T01:45:38.372Z,14.8
2018-05-31T01:46:40.030Z,14.7
2018-05-31T01:47:41.691Z,14.9
2018-05-31T01:48:43.310Z,14.7
2018-05-31T01:49:44.965Z,14.6
2018-05-31T01:50:46.622Z,14.5
2018-05-31T01:51:48.287Z,14.5
2018-05-31T01:52:49.939Z,14.5
2018-05-31T01:53:51.592Z,14.5
2018-05-31T01:54:53.271Z,14.6
2018-05-31T02:01:45.908Z,14.7
2018-05-31T02:02:47.576Z,14.7
2018-05-31T02:03:49.232Z,14.4
2018-05-31T02:04:50.888Z,14.5
2018-05-31T02:05:52.551Z,14.5
2018-05-31T02:06:54.212Z,14.6
2018-05-31T02:07:55.873Z,14.6
2018-05-31T02:08:57.485Z,14.5
2018-05-31T02:09:59.151Z,14.6
2018-05-31T02:11:00.808Z,14.5
2018-05-31T02:12:02.459Z,14.6
2018-05-31T02:13:04.114Z,14.6
2018-05-31T02:14:05.777Z,14.7
2018-05-31T02:15:07.455Z,14.7
2018-05-31T02:16:09.108Z,14.7
2018-05-31T02:17:10.766Z,14.6
2018-05-31T02:18:12.430Z,14.5
2018-05-31T02:19:14.102Z,14.4
2018-05-31T02:20:15.772Z,14.4
2018-05-31T02:21:17.391Z,14.5
2018-05-31T02:22:19.049Z,14.4
2018-05-31T02:23:20.711Z,14.5
2018-05-31T02:24:22.376Z,14.6
2018-05-31T02:25:24.026Z,14.5
2018-05-31T02:26:25.682Z,14.5
2018-05-31T02:27:27.354Z,14.4
2018-05-31T02:28:29.020Z,14.5
2018-05-31T02:29:30.683Z,14.5
2018-05-31T02:30:32.352Z,14.5
2018-05-31T02:31:34.006Z,14.4
2018-05-31T02:32:35.662Z,14.4
2018-05-31T02:33:37.352Z,14.4
2018-05-31T02:34:39.036Z,14.3
2018-05-31T02:35:40.690Z,14.4
2018-05-31T02:36:42.363Z,14.4
2018-05-31T02:37:44.023Z,14.3
2018-05-31T02:38:45.684Z,14.2
2018-05-31T02:39:47.340Z,14.2
2018-05-31T02:40:48.998Z,14.5
2018-05-31T02:41:50.657Z,14.4
2018-05-31T02:42:52.317Z,14.3
2018-05-31T02:43:53.983Z,14.3
2018-05-31T02:44:55.646Z,14.3
2018-05-31T02:45:57.314Z,14.3
2018-05-31T02:46:58.975Z,14.2
2018-05-31T02:48:00.640Z,14.3
2018-05-31T02:49:02.326Z,14.2
2018-05-31T02:50:03.986Z,14.4
2018-05-31T02:51:05.643Z,14.3
2018-05-31T02:52:07.304Z,14.2
2018-05-31T02:53:08.969Z,14.3
2018-05-31T02:54:10.618Z,14.2
2018-05-31T02:55:12.284Z,14.2
2018-05-31T02:56:14.005Z,14.2
2018-05-31T02:57:15.677Z,14.2
2018-05-31T02:58:17.338Z,14.2
2018-05-31T02:59:19.005Z,14.2
2018-05-31T03:00:20.667Z,14.2
2018-05-31T03:01:22.337Z,14.1
2018-05-31T03:02:24.002Z,14.1
2018-05-31T03:03:25.658Z,14.0
2018-05-31T03:04:27.323Z,14.0
2018-05-31T03:05:28.982Z,14.1
2018-05-31T03:06:30.651Z,14.1
2018-05-31T03:07:32.315Z,14.1
2018-05-31T03:08:33.964Z,14.1
2018-05-31T03:09:35.629Z,14.2
2018-05-31T03:10:37.331Z,14.3
2018-05-31T03:11:38.992Z,14.3
2018-05-31T03:12:40.658Z,14.3
2018-05-31T03:13:42.324Z,14.3
2018-05-31T03:14:43.995Z,14.3
2018-05-31T03:15:45.650Z,14.3
2018-05-31T03:16:47.321Z,14.3
2018-05-31T03:17:48.988Z,14.3
2018-05-31T03:18:50.659Z,14.3
2018-05-31T03:19:52.308Z,14.4
2018-05-31T03:20:53.986Z,14.3
2018-05-31T03:21:55.607Z,14.2
2018-05-31T03:22:57.276Z,14.3
2018-05-31T03:23:58.935Z,14.4
2018-05-31T03:25:00.599Z,14.3
2018-05-31T03:26:02.255Z,14.4
2018-05-31T03:27:03.919Z,14.2
2018-05-31T03:28:05.575Z,14.2
2018-05-31T03:29:07.249Z,14.1
2018-05-31T03:30:08.908Z,14.1
2018-05-31T03:31:10.573Z,14.1
2018-05-31T03:32:12.241Z,14.2
2018-05-31T03:33:13.867Z,14.2
2018-05-31T03:34:15.549Z,14.3
2018-05-31T03:35:17.263Z,14.5
2018-05-31T03:36:18.938Z,14.4
2018-05-31T03:37:20.620Z,14.3
2018-05-31T03:38:22.300Z,14.3
2018-05-31T03:39:24.018Z,14.3
2018-05-31T03:40:25.682Z,14.4
2018-05-31T03:41:27.353Z,14.4
2018-05-31T03:42:29.019Z,14.3
2018-05-31T03:43:30.694Z,14.3
2018-05-31T03:44:32.349Z,14.3
2018-05-31T03:45:33.981Z,14.3
2018-05-31T03:46:35.655Z,14.3
2018-05-31T03:47:37.363Z,14.3
2018-05-31T03:48:39.013Z,14.4
2018-05-31T03:49:40.679Z,14.4
2018-05-31T03:50:42.338Z,14.4
2018-05-31T03:51:44.002Z,14.5
2018-05-31T03:52:45.661Z,14.5
2018-05-31T03:53:47.343Z,14.5
2018-05-31T03:54:49.007Z,14.4
2018-05-31T03:55:50.685Z,14.5
2018-05-31T03:56:52.358Z,14.5
2018-05-31T03:57:54.025Z,14.6
2018-05-31T03:58:55.685Z,14.5
2018-05-31T03:59:57.348Z,14.5
2018-05-31T04:00:59.010Z,14.5
2018-05-31T04:02:00.678Z,14.4
2018-05-31T04:03:02.349Z,14.4
2018-05-31T04:04:04.013Z,14.4
2018-05-31T04:05:05.689Z,14.5
2018-05-31T04:06:07.339Z,14.5
2018-05-31T04:07:09.012Z,14.5
2018-05-31T04:08:10.697Z,14.5
2018-05-31T04:09:12.331Z,14.5
2018-05-31T04:10:13.992Z,14.5
2018-05-31T04:11:15.655Z,14.5
2018-05-31T04:12:17.317Z,14.5
2018-05-31T04:13:19.062Z,14.5
2018-05-31T04:14:20.724Z,14.4
2018-05-31T04:15:22.403Z,14.6
2018-05-31T04:16:24.067Z,14.6
2018-05-31T04:17:25.735Z,14.7
2018-05-31T04:18:27.400Z,14.6
2018-05-31T04:19:29.087Z,14.7
2018-05-31T04:20:30.691Z,14.7
2018-05-31T04:21:32.356Z,14.7
2018-05-31T04:22:34.021Z,14.7
2018-05-31T04:23:35.684Z,14.7
2018-05-31T04:24:37.386Z,14.7
2018-05-31T04:25:39.059Z,14.6
2018-05-31T04:26:40.722Z,14.6
2018-05-31T04:27:42.380Z,14.7
2018-05-31T04:28:44.041Z,14.7
2018-05-31T04:29:45.706Z,14.7
2018-05-31T04:30:47.384Z,14.7
2018-05-31T04:31:49.047Z,14.8
2018-05-31T04:32:50.679Z,14.7
2018-05-31T04:33:52.333Z,14.7
2018-05-31T04:34:54.009Z,14.8
2018-05-31T04:35:55.668Z,14.9
2018-05-31T04:36:57.345Z,14.9
2018-05-31T04:37:59.026Z,14.9
2018-05-31T04:39:00.700Z,15.0
2018-05-31T04:40:02.413Z,15.1
2018-05-31T04:41:04.056Z,15.1
2018-05-31T04:42:05.731Z,15.3
2018-05-31T04:43:07.391Z,15.2
2018-05-31T04:44:09.056Z,15.5
2018-05-31T04:45:10.739Z,15.5
2018-05-31T04:46:12.423Z,15.6
2018-05-31T04:47:14.082Z,15.8
2018-05-31T04:48:15.738Z,16.0
2018-05-31T04:49:17.403Z,16.1
2018-05-31T04:50:19.073Z,16.2
2018-05-31T04:51:20.762Z,16.4
2018-05-31T04:52:22.353Z,16.5
2018-05-31T04:53:24.030Z,16.5
2018-05-31T04:54:25.703Z,16.8
2018-05-31T04:55:27.398Z,16.8
2018-05-31T04:56:29.025Z,17.0
2018-05-31T04:57:30.679Z,16.8
2018-05-31T04:58:32.349Z,16.7
2018-05-31T04:59:34.020Z,16.7
2018-05-31T05:00:35.689Z,16.8
2018-05-31T05:01:37.399Z,17.0
2018-05-31T05:02:39.082Z,17.2
2018-05-31T05:03:40.762Z,17.4
2018-05-31T05:04:42.423Z,18.2
2018-05-31T05:05:44.093Z,18.4
2018-05-31T05:06:45.773Z,18.8
2018-05-31T05:07:47.402Z,19.0
2018-05-31T05:08:49.066Z,19.5
2018-05-31T05:09:50.731Z,19.5
2018-05-31T05:10:52.405Z,19.8
2018-05-31T05:11:54.064Z,20.1
2018-05-31T05:12:55.730Z,20.5
2018-05-31T05:13:57.412Z,20.8
2018-05-31T05:14:59.090Z,21.0
2018-05-31T05:16:00.783Z,21.1
2018-05-31T05:17:02.455Z,21.3
2018-05-31T05:18:04.120Z,21.3
2018-05-31T05:19:05.812Z,21.4
2018-05-31T05:20:07.435Z,21.6
2018-05-31T05:21:09.104Z,21.4
2018-05-31T05:22:10.781Z,21.5
2018-05-31T05:23:12.444Z,21.4
2018-05-31T05:24:14.119Z,20.5
2018-05-31T05:25:15.828Z,20.6
2018-05-31T05:26:17.501Z,20.3
2018-05-31T05:27:19.181Z,20.0
2018-05-31T05:28:20.847Z,20.7
2018-05-31T05:29:22.515Z,20.8
2018-05-31T05:30:24.184Z,21.1
2018-05-31T05:31:25.899Z,21.4
2018-05-31T05:32:27.632Z,21.4
2018-05-31T05:33:29.223Z,22.0
2018-05-31T05:34:30.894Z,22.0
2018-05-31T05:35:32.563Z,22.3
2018-05-31T05:36:34.227Z,22.6
2018-05-31T05:37:35.901Z,22.2
2018-05-31T05:38:37.595Z,21.3
2018-05-31T05:39:39.260Z,21.2
2018-05-31T05:40:40.918Z,20.6
2018-05-31T05:41:42.603Z,20.4
2018-05-31T05:42:44.289Z,20.2
2018-05-31T05:43:45.935Z,19.8
2018-05-31T05:44:47.608Z,19.8
2018-05-31T05:45:49.280Z,19.5
2018-05-31T05:46:50.969Z,19.6
2018-05-31T05:47:52.629Z,19.5
2018-05-31T05:48:54.317Z,19.5
2018-05-31T05:49:56.008Z,19.7
2018-05-31T05:50:57.675Z,20.0
2018-05-31T05:51:59.345Z,20.3
2018-05-31T05:53:01.019Z,20.4
2018-05-31T05:54:02.694Z,20.6
2018-05-31T05:55:04.335Z,20.6
2018-05-31T06:01:58.859Z,23.9
2018-05-31T06:03:00.528Z,23.9
2018-05-31T06:04:02.210Z,24.3
2018-05-31T06:05:03.875Z,23.9
2018-05-31T06:06:05.551Z,24.1
2018-05-31T06:07:07.237Z,24.8
2018-05-31T06:08:08.922Z,25.2
2018-05-31T06:09:10.589Z,25.6
2018-05-31T06:10:12.330Z,26.2
2018-05-31T06:11:13.942Z,26.5
2018-05-31T06:12:15.620Z,26.4
2018-05-31T06:13:17.310Z,26.8
2018-05-31T06:14:18.963Z,27.2
2018-05-31T06:15:20.665Z,27.1
2018-05-31T06:16:22.339Z,27.6
2018-05-31T06:17:24.011Z,27.6
2018-05-31T06:18:25.707Z,27.9
2018-05-31T06:19:27.382Z,28.0
2018-05-31T08:17:22.356Z,34.5
2018-05-31T08:18:24.047Z,33.7
2018-05-31T08:20:35.272Z,33.5
2018-05-31T08:21:36.972Z,33.5
2018-05-31T08:22:38.650Z,33.8
2018-05-31T08:23:40.327Z,34.3
2018-05-31T08:24:42.023Z,34.7
2018-05-31T08:25:43.697Z,34.6
2018-05-31T08:26:45.409Z,35.3
2018-05-31T08:27:47.122Z,35.6
2018-05-31T08:28:48.817Z,36.1
2018-05-31T08:29:50.500Z,35.4
2018-05-31T08:30:52.191Z,35.9
2018-05-31T08:31:53.874Z,34.9
2018-05-31T08:32:55.606Z,34.6
2018-05-31T08:33:57.282Z,35.9
2018-05-31T08:34:58.984Z,36.4
2018-05-31T08:36:00.677Z,35.8
2018-05-31T08:37:03.093Z,36.3
2018-05-31T08:38:04.778Z,35.7
2018-05-31T08:39:06.474Z,36.1
2018-05-31T08:40:08.165Z,36.6
2018-05-31T08:41:09.853Z,36.6
2018-05-31T08:42:11.542Z,36.3
2018-05-31T08:43:13.230Z,35.9
2018-05-31T08:44:14.955Z,36.2
2018-05-31T08:45:17.134Z,34.8
2018-05-31T08:46:18.856Z,34.0
2018-05-31T08:47:20.644Z,34.4
2018-05-31T08:48:22.343Z,34.5
2018-05-31T08:49:24.025Z,33.7
2018-05-31T08:50:25.713Z,33.2
2018-05-31T08:51:27.559Z,33.3
2018-05-31T08:52:29.266Z,32.3
2018-05-31T08:53:30.959Z,31.5
2018-05-31T08:54:33.692Z,31.0
2018-05-31T08:55:35.377Z,31.8
2018-05-31T08:56:37.087Z,32.7
2018-05-31T08:57:38.760Z,33.3
2018-05-31T08:58:40.435Z,33.3
2018-05-31T08:59:42.113Z,33.4
2018-05-31T09:00:43.808Z,34.0
2018-05-31T09:01:45.821Z,34.1
2018-05-31T09:02:47.545Z,33.5
2018-05-31T09:03:49.239Z,32.4
2018-05-31T09:04:50.943Z,31.8
2018-05-31T09:05:52.627Z,31.1
2018-05-31T09:06:54.303Z,30.7
2018-05-31T09:07:56.007Z,30.8
2018-05-31T09:08:57.711Z,30.9
2018-05-31T09:09:59.397Z,30.8
2018-05-31T09:11:01.072Z,30.3
2018-05-31T09:12:02.752Z,29.9
2018-05-31T09:13:04.428Z,29.0
2018-05-31T09:14:06.131Z,29.0
2018-05-31T09:15:07.856Z,29.9
2018-05-31T09:16:09.516Z,30.8
2018-05-31T09:17:11.187Z,32.2
2018-05-31T09:18:12.897Z,32.8
2018-05-31T09:19:14.575Z,33.3
2018-05-31T09:20:16.272Z,33.1
2018-05-31T09:21:17.940Z,32.5
2018-05-31T09:22:19.626Z,30.5
2018-05-31T09:23:21.316Z,29.9
2018-05-31T09:24:23.012Z,30.1
2018-05-31T09:25:24.721Z,30.7
2018-05-31T09:26:26.417Z,32.2
2018-05-31T09:27:28.136Z,33.2
2018-05-31T09:28:29.846Z,32.8
2018-05-31T09:29:31.522Z,32.3
2018-05-31T09:30:33.203Z,32.8
2018-05-31T09:31:34.897Z,33.8
2018-05-31T09:32:36.593Z,33.5
2018-05-31T09:33:38.294Z,33.6
2018-05-31T09:34:40.045Z,34.6
2018-05-31T09:35:42.128Z,35.0
2018-05-31T09:36:43.804Z,35.0
2018-05-31T09:37:45.490Z,33.3
2018-05-31T09:38:47.177Z,32.7
2018-05-31T09:39:49.093Z,33.7
2018-05-31T09:40:53.456Z,34.2
2018-05-31T09:41:55.076Z,35.3
2018-05-31T09:42:56.785Z,35.9
2018-05-31T09:43:58.459Z,36.3
2018-05-31T09:45:00.234Z,37.0
2018-05-31T09:46:02.369Z,37.2
2018-05-31T09:47:05.188Z,36.8
2018-05-31T09:48:07.417Z,35.5
2018-05-31T09:49:11.145Z,35.4
2018-05-31T09:50:12.847Z,35.4
2018-05-31T09:51:14.551Z,36.0
2018-05-31T09:52:16.270Z,33.5
2018-05-31T09:53:17.977Z,34.2
2018-05-31T09:54:19.660Z,32.6
2018-05-31T09:55:21.347Z,33.1
2018-05-31T10:02:01.796Z,31.4
2018-05-31T10:03:03.953Z,32.0
2018-05-31T10:04:05.668Z,32.3
2018-05-31T10:05:07.359Z,33.4
2018-05-31T10:06:09.036Z,33.1
2018-05-31T10:07:10.729Z,33.1
2018-05-31T10:08:12.407Z,34.0
2018-05-31T10:09:14.102Z,32.9
2018-05-31T10:10:15.784Z,32.9
2018-05-31T10:11:17.680Z,33.8
2018-05-31T10:12:19.405Z,34.3
2018-05-31T10:13:21.091Z,33.1
2018-05-31T10:14:22.769Z,34.1
2018-05-31T10:15:24.441Z,33.9
2018-05-31T10:16:26.146Z,35.4
2018-05-31T10:17:27.841Z,35.9
2018-05-31T10:18:29.539Z,36.5
2018-05-31T10:19:31.274Z,37.0
2018-05-31T10:20:32.955Z,36.6
2018-05-31T10:21:34.658Z,36.8
2018-05-31T10:22:36.417Z,35.7
2018-05-31T10:23:38.103Z,35.7
2018-05-31T10:24:39.801Z,35.4
2018-05-31T10:25:41.487Z,36.0
2018-05-31T10:26:43.184Z,36.6
2018-05-31T10:27:44.867Z,37.3
2018-05-31T10:28:46.554Z,35.8
2018-05-31T10:29:48.275Z,36.3
2018-05-31T10:30:49.958Z,37.0
2018-05-31T10:31:51.665Z,37.1
2018-05-31T10:32:53.355Z,37.0
2018-05-31T10:33:55.093Z,36.6
2018-05-31T10:34:56.795Z,36.0
2018-05-31T10:35:58.484Z,37.3
2018-05-31T10:37:00.162Z,38.1
2018-05-31T10:38:01.871Z,36.8
2018-05-31T10:39:03.611Z,36.9
2018-05-31T10:40:05.282Z,37.3
2018-05-31T10:41:07.003Z,37.0
2018-05-31T10:42:08.676Z,37.3
2018-05-31T10:43:10.363Z,37.9
2018-05-31T10:44:12.038Z,35.7
2018-05-31T10:45:13.727Z,37.3
2018-05-31T10:46:15.476Z,37.3
2018-05-31T10:47:17.108Z,36.4
2018-05-31T10:48:18.802Z,35.1
2018-05-31T10:49:20.489Z,34.1
2018-05-31T10:50:22.179Z,34.2
2018-05-31T10:51:23.878Z,34.3
2018-05-31T10:52:25.583Z,35.4
2018-05-31T10:53:27.284Z,34.3
2018-05-31T10:54:28.970Z,33.9
2018-05-31T10:55:30.656Z,34.2
2018-05-31T10:56:32.364Z,33.7
2018-05-31T10:57:34.092Z,32.9
2018-05-31T10:58:35.770Z,33.5
2018-05-31T10:59:37.522Z,31.8
2018-05-31T11:00:39.220Z,31.3
2018-05-31T11:01:40.928Z,31.4
2018-05-31T11:02:42.606Z,32.8
2018-05-31T11:03:44.300Z,33.5
2018-05-31T11:04:45.992Z,33.8
2018-05-31T11:05:47.688Z,34.3
2018-05-31T11:06:49.355Z,33.2
2018-05-31T11:07:51.064Z,34.2
2018-05-31T11:08:52.752Z,34.4
2018-05-31T11:09:54.436Z,33.2
2018-05-31T11:10:56.119Z,34.0
2018-05-31T11:11:57.805Z,34.7
2018-05-31T11:12:59.505Z,34.8
2018-05-31T11:14:01.206Z,34.3
2018-05-31T11:15:02.931Z,35.0
2018-05-31T11:16:04.599Z,32.9
2018-05-31T11:17:06.287Z,32.2
2018-05-31T11:18:07.985Z,31.4
2018-05-31T11:19:09.670Z,31.8
2018-05-31T11:20:11.377Z,31.6
2018-05-31T11:21:13.082Z,31.7
2018-05-31T11:22:14.761Z,32.7
2018-05-31T11:23:16.446Z,33.2
2018-05-31T11:24:18.127Z,34.0
2018-05-31T11:25:19.855Z,34.4
2018-05-31T11:26:21.519Z,34.7
2018-05-31T11:27:23.210Z,35.3
2018-05-31T11:28:24.923Z,34.2
2018-05-31T11:29:26.618Z,34.1
2018-05-31T11:30:28.316Z,33.3
2018-05-31T11:31:30.001Z,32.9
2018-05-31T11:32:31.686Z,34.3
2018-05-31T11:33:33.358Z,33.6
2018-05-31T11:34:35.067Z,33.4
2018-05-31T11:35:36.798Z,32.8
2018-05-31T11:36:38.486Z,33.3
2018-05-31T11:37:40.169Z,33.4
2018-05-31T11:38:41.861Z,33.9
2018-05-31T11:39:43.551Z,34.1
2018-05-31T11:40:45.233Z,32.6
2018-05-31T11:41:46.912Z,32.9
2018-05-31T11:42:48.592Z,32.6
2018-05-31T11:43:50.466Z,32.4
2018-05-31T11:44:52.106Z,31.3
2018-05-31T11:45:53.777Z,31.2
2018-05-31T11:46:55.467Z,30.3
2018-05-31T11:47:57.149Z,30.2
2018-05-31T11:48:58.828Z,30.3
2018-05-31T11:50:00.513Z,30.3
2018-05-31T11:51:02.199Z,29.6
2018-05-31T11:52:03.859Z,29.0
2018-05-31T11:53:05.598Z,29.2
2018-05-31T11:54:07.540Z,29.1
2018-05-31T11:55:09.173Z,29.0
2018-05-31T11:56:10.864Z,28.9
2018-05-31T11:57:12.548Z,28.6
2018-05-31T11:58:14.227Z,28.8
2018-05-31T11:59:15.893Z,28.4
2018-05-31T12:00:17.588Z,28.4
2018-05-31T12:01:19.273Z,28.3
2018-05-31T12:02:20.950Z,28.3
2018-05-31T12:03:22.641Z,28.6
2018-05-31T12:04:24.336Z,28.7
2018-05-31T12:05:26.012Z,28.7
2018-05-31T12:06:27.756Z,28.8
2018-05-31T12:07:29.394Z,28.9
2018-05-31T12:08:31.088Z,28.9
2018-05-31T12:09:32.780Z,28.9
2018-05-31T12:10:34.444Z,29.1
2018-05-31T12:11:36.145Z,29.3
2018-05-31T12:12:37.889Z,29.7
2018-05-31T12:13:39.563Z,29.7
2018-05-31T12:14:41.435Z,29.9
2018-05-31T12:15:43.099Z,30.1
2018-05-31T12:16:44.801Z,29.9
2018-05-31T12:17:46.485Z,30.2
2018-05-31T12:18:48.169Z,30.3
2018-05-31T12:19:49.844Z,30.2
2018-05-31T12:20:51.514Z,30.1
2018-05-31T12:21:53.189Z,29.8
2018-05-31T12:22:54.890Z,30.1
2018-05-31T12:23:56.545Z,30.2
2018-05-31T12:24:58.238Z,30.2
2018-05-31T12:25:59.926Z,30.4
2018-05-31T12:27:01.606Z,30.3
2018-05-31T12:28:03.287Z,30.4
2018-05-31T12:29:04.960Z,30.7
2018-05-31T12:30:06.654Z,31.2
2018-05-31T12:31:08.331Z,31.9
2018-05-31T12:32:10.028Z,32.1
2018-05-31T12:33:11.758Z,32.4
2018-05-31T12:34:13.405Z,32.3
2018-05-31T12:35:15.080Z,32.4
2018-05-31T12:36:16.795Z,32.4
2018-05-31T12:37:18.450Z,32.6
2018-05-31T12:38:20.122Z,32.8
2018-05-31T12:39:21.934Z,32.3
2018-05-31T12:40:23.590Z,32.3
2018-05-31T12:41:25.273Z,32.3
2018-05-31T12:42:26.946Z,31.8
2018-05-31T12:43:28.625Z,31.7
2018-05-31T12:44:30.296Z,31.8
2018-05-31T12:45:32.028Z,31.7
2018-05-31T12:46:33.710Z,31.7
2018-05-31T12:47:35.400Z,31.1
2018-05-31T12:48:37.125Z,31.2
2018-05-31T12:49:38.792Z,31.6
2018-05-31T12:50:40.478Z,31.2
2018-05-31T12:51:42.186Z,31.2
2018-05-31T12:52:43.865Z,31.1
2018-05-31T12:53:45.558Z,30.9
2018-05-31T12:54:47.261Z,30.3
2018-05-31T12:55:48.943Z,31.6
2018-05-31T12:56:50.636Z,32.3
2018-05-31T12:57:52.316Z,33.0
2018-05-31T12:58:53.998Z,33.9
2018-05-31T12:59:55.693Z,34.5
2018-05-31T13:00:57.369Z,34.7
2018-05-31T13:01:59.047Z,34.5
2018-05-31T13:03:00.741Z,34.3
2018-05-31T13:04:02.429Z,32.8
2018-05-31T13:05:04.113Z,31.9
2018-05-31T13:06:05.865Z,31.3
2018-05-31T13:07:07.521Z,30.6
2018-05-31T13:08:09.221Z,29.6
2018-05-31T13:09:10.897Z,29.6
2018-05-31T13:10:12.576Z,29.6
2018-05-31T13:11:14.258Z,29.1
2018-05-31T13:12:15.988Z,29.1
2018-05-31T13:13:17.772Z,29.2
2018-05-31T13:14:19.457Z,29.0
2018-05-31T13:15:21.127Z,29.0
2018-05-31T13:16:22.814Z,28.5
2018-05-31T13:17:24.483Z,28.1
2018-05-31T13:18:26.214Z,28.2
2018-05-31T13:19:27.902Z,28.0
2018-05-31T13:20:29.598Z,27.9
2018-05-31T13:21:32.415Z,27.6
2018-05-31T13:22:34.121Z,27.7
2018-05-31T13:23:35.807Z,27.2
2018-05-31T13:24:37.591Z,27.4
2018-05-31T13:25:42.109Z,27.5
2018-05-31T13:26:43.709Z,27.4
2018-05-31T13:27:46.123Z,27.7
2018-05-31T13:28:47.792Z,27.8
2018-05-31T13:29:49.474Z,28.0
2018-05-31T13:30:51.149Z,27.8
2018-05-31T13:31:52.858Z,28.1
2018-05-31T13:32:54.537Z,28.8
2018-05-31T13:33:56.245Z,29.7
2018-05-31T13:34:57.999Z,29.8
2018-05-31T13:35:59.762Z,29.5
2018-05-31T13:37:01.534Z,28.8
2018-05-31T13:38:03.257Z,29.4
2018-05-31T13:39:04.927Z,29.9
2018-05-31T13:40:06.619Z,29.5
2018-05-31T13:41:08.478Z,29.1
2018-05-31T13:42:10.172Z,29.7
2018-05-31T13:43:11.941Z,29.0
2018-05-31T13:44:13.588Z,29.7
2018-05-31T13:45:15.279Z,29.4
2018-05-31T13:46:17.528Z,29.2
2018-05-31T13:47:19.211Z,29.2
2018-05-31T13:48:20.886Z,29.3
2018-05-31T13:49:22.596Z,29.1
2018-05-31T13:50:24.270Z,29.5
2018-05-31T13:51:25.968Z,29.7
2018-05-31T13:52:27.663Z,29.8
2018-05-31T13:53:29.341Z,29.7
2018-05-31T13:54:31.061Z,29.9
2018-05-31T13:55:32.756Z,29.9
2018-05-31T14:01:33.680Z,29.3
2018-05-31T14:02:35.340Z,29.0
2018-05-31T14:03:37.068Z,29.1
2018-05-31T14:04:38.740Z,29.1
2018-05-31T14:05:40.455Z,28.4
2018-05-31T14:06:42.142Z,28.0
2018-05-31T14:07:43.908Z,27.9
2018-05-31T14:08:45.604Z,27.6
2018-05-31T14:09:47.269Z,27.4
2018-05-31T14:10:48.934Z,27.3
2018-05-31T14:11:50.631Z,27.0
2018-05-31T14:12:52.302Z,27.1
2018-05-31T14:13:53.967Z,26.9
2018-05-31T14:14:55.640Z,26.9
2018-05-31T14:15:57.319Z,26.6
2018-05-31T14:16:58.985Z,26.4
2018-05-31T14:18:00.660Z,26.3
2018-05-31T14:19:02.351Z,26.1
2018-05-31T14:20:04.036Z,25.7
2018-05-31T14:21:05.709Z,25.6
2018-05-31T14:22:07.405Z,25.7
2018-05-31T14:23:09.091Z,25.6
2018-05-31T14:24:10.745Z,25.0
2018-05-31T14:25:12.427Z,24.7
2018-05-31T14:26:14.094Z,24.5
2018-05-31T14:27:15.765Z,24.5
2018-05-31T14:28:17.431Z,23.9
2018-05-31T14:29:19.111Z,23.8
2018-05-31T14:30:20.789Z,23.7
2018-05-31T14:31:22.470Z,23.6
2018-05-31T14:32:24.149Z,23.8
2018-05-31T14:33:25.814Z,23.9
2018-05-31T14:34:27.499Z,24.0
2018-05-31T14:35:29.182Z,24.3
2018-05-31T14:36:30.867Z,24.3
2018-05-31T14:37:32.529Z,24.3
2018-05-31T14:38:34.197Z,24.5
2018-05-31T14:39:35.869Z,24.7
2018-05-31T14:40:37.572Z,24.5
2018-05-31T14:41:39.305Z,24.7
2018-05-31T14:42:40.962Z,24.4
2018-05-31T14:43:42.646Z,24.5
2018-05-31T14:44:44.326Z,24.8
2018-05-31T14:45:46.004Z,25.1
2018-05-31T14:46:47.683Z,25.1
2018-05-31T14:47:49.379Z,25.3
2018-05-31T14:48:51.055Z,25.1
2018-05-31T14:49:52.720Z,25.1
2018-05-31T14:50:54.407Z,25.1
2018-05-31T14:51:56.079Z,25.2
2018-05-31T14:52:57.754Z,25.0
2018-05-31T14:53:59.428Z,25.1
2018-05-31T14:55:01.095Z,25.5
2018-05-31T14:56:02.819Z,25.6
2018-05-31T14:57:04.500Z,25.7
2018-05-31T14:58:06.202Z,25.8
2018-05-31T14:59:07.872Z,25.8
2018-05-31T15:00:09.573Z,25.8
2018-05-31T15:01:11.257Z,25.8
2018-05-31T15:02:12.924Z,25.8
2018-05-31T15:03:14.611Z,25.7
2018-05-31T15:04:16.348Z,25.8
2018-05-31T15:05:18.027Z,25.7
2018-05-31T15:06:19.710Z,25.7
2018-05-31T15:07:21.388Z,25.7
2018-05-31T15:08:23.063Z,25.7
2018-05-31T15:09:24.835Z,25.5
2018-05-31T15:10:26.530Z,25.5
2018-05-31T15:11:28.214Z,25.4
2018-05-31T15:12:29.894Z,25.3
2018-05-31T15:13:59.008Z,25.4
2018-05-31T15:15:00.675Z,25.6
2018-05-31T15:16:02.358Z,25.8
2018-05-31T15:17:04.037Z,25.7
2018-05-31T15:18:05.716Z,25.4
2018-05-31T15:19:07.401Z,25.4
2018-05-31T15:20:09.084Z,25.1
2018-05-31T15:21:10.767Z,24.8
2018-05-31T15:22:12.442Z,25.1
2018-05-31T15:23:14.118Z,24.7
2018-05-31T15:24:15.793Z,25.0
2018-05-31T15:25:17.453Z,24.9
2018-05-31T15:26:19.141Z,25.1
2018-05-31T15:27:20.814Z,25.1
2018-05-31T15:28:22.489Z,25.1
2018-05-31T15:29:24.154Z,25.3
2018-05-31T15:30:25.825Z,25.3
2018-05-31T15:31:27.501Z,25.2
2018-05-31T15:32:29.173Z,25.3
2018-05-31T15:33:31.088Z,25.4
2018-05-31T15:34:32.774Z,25.4
2018-05-31T15:35:34.496Z,25.2
2018-05-31T15:36:36.127Z,25.4
2018-05-31T15:37:37.845Z,25.3
2018-05-31T15:38:39.528Z,25.2
2018-05-31T15:39:41.212Z,25.1
2018-05-31T15:40:42.901Z,25.1
2018-05-31T15:41:44.574Z,25.0
2018-05-31T15:42:46.256Z,25.0
2018-05-31T15:43:47.929Z,25.1
2018-05-31T15:44:49.599Z,24.9
2018-05-31T15:45:51.268Z,24.8
2018-05-31T15:46:52.949Z,25.0
2018-05-31T15:47:54.660Z,25.1
2018-05-31T15:48:56.318Z,25.0
2018-05-31T15:49:57.985Z,25.1
2018-05-31T15:50:59.651Z,25.2
2018-05-31T15:52:01.332Z,25.1
2018-05-31T15:53:02.994Z,25.1
2018-05-31T15:54:04.670Z,25.1
2018-05-31T15:55:06.364Z,25.0
2018-05-31T15:56:08.300Z,25.0
2018-05-31T15:57:10.989Z,25.1
2018-05-31T15:58:12.604Z,25.1
2018-05-31T15:59:14.277Z,25.0
2018-05-31T16:00:15.974Z,25.0
2018-05-31T16:01:17.636Z,25.1
2018-05-31T16:02:19.300Z,25.1